Pagina principală
METAR-TAF:

METAR-TAF

Aeroporturi :

Aitutaki, Insulele Cook

Latitudine: 18-49-51S, longitudine: 159-45-51W, elevație: 4 m

Observații meteo curente

Raportul a fost făcut în urmă cu 16 de minute, la 10:00 UTC
Vânt 5 kt de la Sud-est
Temperatură 25°C
Umiditate 74%
Presiune 1011 hPa

METAR: NCAI 241000Z AUTO 13005KT //// ////// 25/20 Q1011

Ora: 00:16 (10:16 UTC)


TAF: lipsă

Observații și prognoze meteo pentru peste 4.000 de aeroporturi (rapoarte METAR și TAF).

Stațiile disponibile sunt reprezentate pe hartă prin puncte galbene și roșii.

Țineți indicatorul mouse-ului pe punctul dorit pentru a vedea denumirea stației.

Apoi, faceți clic pentru a vedea observațiile și prognozele meteorologice.

Pentru a schimba harta: Pentru mărire, faceți clic pe butoanele verzi cu cruce neagră; pentru micșorare, pe butonul verde cu o liniuță; pentru hărți învecinate, pe săgețile verzi.


METAR-TAF: